sensor_id;sensor_type;location;lat;lon;timestamp;pressure;altitude;pressure_sealevel;temperature;humidity
54248;BME280;40161;39.768;2.722;2023-04-23T08:07:24;101025.34;;;17.27;78.26
54248;BME280;40161;39.768;2.722;2023-04-23T08:09:50;101030.47;;;17.29;77.55
54248;BME280;40161;39.768;2.722;2023-04-23T08:12:15;101045.88;;;17.37;76.08
54248;BME280;40161;39.768;2.722;2023-04-23T08:14:42;101024.13;;;17.32;74.26
54248;BME280;40161;39.768;2.722;2023-04-23T08:17:09;101039.88;;;17.49;74.54
54248;BME280;40161;39.768;2.722;2023-04-23T08:19:34;101020.06;;;17.44;75.41
54248;BME280;40161;39.768;2.722;2023-04-23T08:22:00;101037.00;;;17.64;76.84
54248;BME280;40161;39.768;2.722;2023-04-23T08:24:25;101037.72;;;17.71;77.80
54248;BME280;40161;39.768;2.722;2023-04-23T08:26:54;101040.44;;;17.86;80.25
54248;BME280;40161;39.768;2.722;2023-04-23T08:29:19;101047.56;;;17.90;80.53
54248;BME280;40161;39.768;2.722;2023-04-23T08:31:45;101051.84;;;17.98;81.17
54248;BME280;40161;39.768;2.722;2023-04-23T08:34:11;101036.44;;;17.90;81.12
54248;BME280;40161;39.768;2.722;2023-04-23T08:36:36;101033.25;;;17.92;80.30
54248;BME280;40161;39.768;2.722;2023-04-23T08:39:02;101023.72;;;17.96;80.08
54248;BME280;40161;39.768;2.722;2023-04-23T08:41:40;101027.25;;;18.00;78.26
54248;BME280;40161;39.768;2.722;2023-04-23T08:44:17;101025.22;;;18.05;76.79
54248;BME280;40161;39.768;2.722;2023-04-23T08:46:44;101015.25;;;18.11;76.93
54248;BME280;40161;39.768;2.722;2023-04-23T08:49:16;101023.56;;;18.14;76.53
54248;BME280;40161;39.768;2.722;2023-04-23T08:51:45;101050.34;;;18.35;76.54
54248;BME280;40161;39.768;2.722;2023-04-23T08:54:14;101030.53;;;18.30;76.31
54248;BME280;40161;39.768;2.722;2023-04-23T08:56:41;101043.22;;;18.34;75.88
54248;BME280;40161;39.768;2.722;2023-04-23T08:59:06;101022.59;;;18.32;74.02
54248;BME280;40161;39.768;2.722;2023-04-23T09:01:32;101038.22;;;18.56;74.55
54248;BME280;40161;39.768;2.722;2023-04-23T09:03:59;101033.41;;;18.60;74.43
54248;BME280;40161;39.768;2.722;2023-04-23T09:06:25;100982.44;;;18.36;75.52
54248;BME280;40161;39.768;2.722;2023-04-23T09:08:51;101019.38;;;18.74;76.20
54248;BME280;40161;39.768;2.722;2023-04-23T09:11:17;101018.16;;;18.79;76.67
54248;BME280;40161;39.768;2.722;2023-04-23T09:13:43;101051.66;;;18.99;77.11
54248;BME280;40161;39.768;2.722;2023-04-23T09:16:09;101039.00;;;18.94;76.07
54248;BME280;40161;39.768;2.722;2023-04-23T09:18:35;101052.72;;;19.09;77.37
54248;BME280;40161;39.768;2.722;2023-04-23T09:21:00;101048.78;;;19.06;77.12
54248;BME280;40161;39.768;2.722;2023-04-23T09:23:28;101019.53;;;18.94;76.88
54248;BME280;40161;39.768;2.722;2023-04-23T09:25:56;101042.34;;;19.13;76.35
54248;BME280;40161;39.768;2.722;2023-04-23T09:28:36;101056.16;;;19.20;76.08
54248;BME280;40161;39.768;2.722;2023-04-23T09:31:05;101056.47;;;19.26;76.50
54248;BME280;40161;39.768;2.722;2023-04-23T09:33:33;101043.78;;;19.25;75.73
54248;BME280;40161;39.768;2.722;2023-04-23T09:36:08;101050.72;;;19.40;75.26
54248;BME280;40161;39.768;2.722;2023-04-23T09:38:34;101063.81;;;19.43;75.63
54248;BME280;40161;39.768;2.722;2023-04-23T09:41:25;101063.75;;;19.47;74.48
54248;BME280;40161;39.768;2.722;2023-04-23T09:43:55;101059.41;;;19.45;74.05
54248;BME280;40161;39.768;2.722;2023-04-23T09:46:40;101061.81;;;19.43;74.13
54248;BME280;40161;39.768;2.722;2023-04-23T09:49:07;101067.75;;;19.45;74.27
54248;BME280;40161;39.768;2.722;2023-04-23T09:51:37;101059.50;;;19.38;74.34
54248;BME280;40161;39.768;2.722;2023-04-23T09:54:10;101042.44;;;19.36;74.63
54248;BME280;40161;39.768;2.722;2023-04-23T09:56:36;101060.09;;;19.53;73.46
54248;BME280;40161;39.768;2.722;2023-04-23T09:59:01;101008.84;;;19.20;74.00
54248;BME280;40161;39.768;2.722;2023-04-23T10:01:28;101061.56;;;19.61;73.40
54248;BME280;40161;39.768;2.722;2023-04-23T10:03:54;101073.03;;;19.67;73.05
54248;BME280;40161;39.768;2.722;2023-04-23T10:06:31;101075.41;;;19.68;72.65
54248;BME280;40161;39.768;2.722;2023-04-23T10:08:57;101029.13;;;19.48;73.17
54248;BME280;40161;39.768;2.722;2023-04-23T10:11:23;101084.75;;;19.82;72.92
54248;BME280;40161;39.768;2.722;2023-04-23T10:13:50;101082.78;;;19.82;72.30
54248;BME280;40161;39.768;2.722;2023-04-23T10:16:17;101076.09;;;19.76;72.10
54248;BME280;40161;39.768;2.722;2023-04-23T10:18:43;101011.72;;;19.43;72.12
54248;BME280;40161;39.768;2.722;2023-04-23T10:21:10;101062.28;;;19.69;71.52
54248;BME280;40161;39.768;2.722;2023-04-23T10:23:37;101069.31;;;19.77;72.69
54248;BME280;40161;39.768;2.722;2023-04-23T10:26:06;101078.28;;;19.88;72.01
54248;BME280;40161;39.768;2.722;2023-04-23T10:28:34;101049.34;;;19.82;71.68
54248;BME280;40161;39.768;2.722;2023-04-23T10:31:01;101065.72;;;20.04;72.02
54248;BME280;40161;39.768;2.722;2023-04-23T10:33:30;101068.44;;;20.07;70.94
54248;BME280;40161;39.768;2.722;2023-04-23T10:35:56;101077.22;;;20.29;71.42
54248;BME280;40161;39.768;2.722;2023-04-23T10:38:22;101063.41;;;20.22;71.16
54248;BME280;40161;39.768;2.722;2023-04-23T10:40:49;101081.03;;;20.39;71.14
54248;BME280;40161;39.768;2.722;2023-04-23T10:43:17;101074.25;;;20.40;71.27
54248;BME280;40161;39.768;2.722;2023-04-23T10:45:43;101059.78;;;20.25;72.36
54248;BME280;40161;39.768;2.722;2023-04-23T10:48:08;101072.97;;;20.45;72.76
54248;BME280;40161;39.768;2.722;2023-04-23T10:50:35;101069.56;;;20.33;72.46
54248;BME280;40161;39.768;2.722;2023-04-23T10:53:01;101055.28;;;20.31;72.50
54248;BME280;40161;39.768;2.722;2023-04-23T10:55:29;101075.66;;;20.52;73.15
54248;BME280;40161;39.768;2.722;2023-04-23T10:57:59;101083.19;;;20.55;72.23
54248;BME280;40161;39.768;2.722;2023-04-23T11:00:26;101068.97;;;20.46;72.66
54248;BME280;40161;39.768;2.722;2023-04-23T11:02:52;101080.97;;;20.43;73.21
54248;BME280;40161;39.768;2.722;2023-04-23T11:05:18;101069.41;;;20.44;73.10
54248;BME280;40161;39.768;2.722;2023-04-23T11:08:02;101080.66;;;20.60;72.37
54248;BME280;40161;39.768;2.722;2023-04-23T11:10:30;101077.16;;;20.56;72.55
54248;BME280;40161;39.768;2.722;2023-04-23T11:12:55;101083.06;;;20.62;72.26
54248;BME280;40161;39.768;2.722;2023-04-23T11:15:21;101076.69;;;20.61;73.01
54248;BME280;40161;39.768;2.722;2023-04-23T11:20:20;101072.88;;;20.52;71.79
54248;BME280;40161;39.768;2.722;2023-04-23T11:22:51;101062.69;;;20.42;73.20
54248;BME280;40161;39.768;2.722;2023-04-23T11:25:25;101089.84;;;20.81;72.79
54248;BME280;40161;39.768;2.722;2023-04-23T11:27:52;101091.22;;;20.73;71.11
54248;BME280;40161;39.768;2.722;2023-04-23T11:30:23;101087.13;;;20.77;72.11
54248;BME280;40161;39.768;2.722;2023-04-23T11:32:51;101069.88;;;20.62;71.10
54248;BME280;40161;39.768;2.722;2023-04-23T11:35:18;101072.47;;;20.73;71.89
54248;BME280;40161;39.768;2.722;2023-04-23T11:37:45;101068.19;;;20.69;71.88
54248;BME280;40161;39.768;2.722;2023-04-23T11:40:14;101070.41;;;20.77;71.86
54248;BME280;40161;39.768;2.722;2023-04-23T11:45:17;101063.66;;;20.75;71.71
54248;BME280;40161;39.768;2.722;2023-04-23T11:47:44;101066.81;;;20.77;71.79
54248;BME280;40161;39.768;2.722;2023-04-23T11:50:10;101062.59;;;20.89;72.07
54248;BME280;40161;39.768;2.722;2023-04-23T11:52:42;101056.53;;;20.94;71.75
54248;BME280;40161;39.768;2.722;2023-04-23T11:55:08;101052.31;;;21.05;71.14
54248;BME280;40161;39.768;2.722;2023-04-23T11:57:35;101028.84;;;21.03;70.19
54248;BME280;40161;39.768;2.722;2023-04-23T12:00:17;101047.31;;;21.17;70.74
54248;BME280;40161;39.768;2.722;2023-04-23T12:02:57;101039.19;;;21.22;69.32
54248;BME280;40161;39.768;2.722;2023-04-23T12:05:30;101031.69;;;21.19;69.45
54248;BME280;40161;39.768;2.722;2023-04-23T12:08:08;101042.56;;;21.33;68.96
54248;BME280;40161;39.768;2.722;2023-04-23T12:10:48;101039.75;;;21.33;69.65
54248;BME280;40161;39.768;2.722;2023-04-23T12:13:15;101037.19;;;21.23;68.81
54248;BME280;40161;39.768;2.722;2023-04-23T12:15:49;101059.16;;;21.41;69.29
54248;BME280;40161;39.768;2.722;2023-04-23T12:18:15;101061.34;;;21.49;68.90
54248;BME280;40161;39.768;2.722;2023-04-23T12:20:41;101049.34;;;21.32;68.87
54248;BME280;40161;39.768;2.722;2023-04-23T12:23:07;101032.75;;;21.25;69.27
54248;BME280;40161;39.768;2.722;2023-04-23T12:25:34;101042.69;;;21.26;69.33
54248;BME280;40161;39.768;2.722;2023-04-23T12:28:00;101035.53;;;21.25;68.13
54248;BME280;40161;39.768;2.722;2023-04-23T12:30:31;101045.56;;;21.43;68.77
54248;BME280;40161;39.768;2.722;2023-04-23T12:35:49;101028.66;;;21.30;68.66
54248;BME280;40161;39.768;2.722;2023-04-23T12:38:28;101041.19;;;21.22;68.90
54248;BME280;40161;39.768;2.722;2023-04-23T12:40:58;100997.03;;;21.00;69.12
54248;BME280;40161;39.768;2.722;2023-04-23T12:43:25;101026.53;;;21.18;69.32
54248;BME280;40161;39.768;2.722;2023-04-23T12:45:52;101023.66;;;21.21;69.13
54248;BME280;40161;39.768;2.722;2023-04-23T12:48:17;101027.00;;;21.32;68.94
54248;BME280;40161;39.768;2.722;2023-04-23T12:50:46;101035.63;;;21.42;68.46
54248;BME280;40161;39.768;2.722;2023-04-23T12:53:13;100998.34;;;21.12;68.72
54248;BME280;40161;39.768;2.722;2023-04-23T12:55:39;101006.69;;;21.32;68.50
54248;BME280;40161;39.768;2.722;2023-04-23T12:58:05;100967.03;;;21.04;66.98
54248;BME280;40161;39.768;2.722;2023-04-23T13:00:31;100982.13;;;21.07;67.38
54248;BME280;40161;39.768;2.722;2023-04-23T13:02:57;100989.13;;;21.15;66.94
54248;BME280;40161;39.768;2.722;2023-04-23T13:05:23;101011.78;;;21.37;67.40
54248;BME280;40161;39.768;2.722;2023-04-23T13:07:48;101013.97;;;21.46;67.35
54248;BME280;40161;39.768;2.722;2023-04-23T13:10:14;101017.22;;;21.61;67.41
54248;BME280;40161;39.768;2.722;2023-04-23T13:12:40;101010.94;;;21.56;66.93
54248;BME280;40161;39.768;2.722;2023-04-23T13:15:09;101004.22;;;21.38;66.76
54248;BME280;40161;39.768;2.722;2023-04-23T13:17:37;100982.97;;;21.24;67.67
54248;BME280;40161;39.768;2.722;2023-04-23T13:20:02;101005.31;;;21.40;67.84
54248;BME280;40161;39.768;2.722;2023-04-23T13:22:29;100976.72;;;21.16;67.51
54248;BME280;40161;39.768;2.722;2023-04-23T13:24:59;101013.00;;;21.36;68.07
54248;BME280;40161;39.768;2.722;2023-04-23T13:27:26;100983.19;;;21.13;67.72
54248;BME280;40161;39.768;2.722;2023-04-23T13:29:52;100991.66;;;21.09;67.93
54248;BME280;40161;39.768;2.722;2023-04-23T13:32:18;101021.81;;;21.35;68.29
54248;BME280;40161;39.768;2.722;2023-04-23T13:34:43;101004.69;;;21.32;67.57
54248;BME280;40161;39.768;2.722;2023-04-23T13:37:09;101001.56;;;21.30;67.71
54248;BME280;40161;39.768;2.722;2023-04-23T13:39:36;101017.44;;;21.33;67.40
54248;BME280;40161;39.768;2.722;2023-04-23T13:42:01;100973.41;;;21.05;67.40
54248;BME280;40161;39.768;2.722;2023-04-23T13:44:29;101041.81;;;21.49;66.77
54248;BME280;40161;39.768;2.722;2023-04-23T13:46:55;101003.06;;;21.15;66.50
54248;BME280;40161;39.768;2.722;2023-04-23T13:49:23;101030.31;;;21.47;67.70
54248;BME280;40161;39.768;2.722;2023-04-23T13:52:17;101022.97;;;21.53;66.74
54248;BME280;40161;39.768;2.722;2023-04-23T14:25:44;100934.88;;;21.98;64.03
54248;BME280;40161;39.768;2.722;2023-04-23T18:26:27;100866.78;;;20.61;63.37
54248;BME280;40161;39.768;2.722;2023-04-23T18:54:29;100900.78;;;20.12;65.22
54248;BME280;40161;39.768;2.722;2023-04-23T18:56:55;100914.06;;;20.05;64.59
54248;BME280;40161;39.768;2.722;2023-04-23T18:59:21;100922.72;;;20.10;65.45
54248;BME280;40161;39.768;2.722;2023-04-23T19:01:47;100916.31;;;20.13;65.66
54248;BME280;40161;39.768;2.722;2023-04-23T19:04:13;100927.28;;;20.01;66.13
54248;BME280;40161;39.768;2.722;2023-04-23T19:06:39;100905.09;;;19.74;67.82
54248;BME280;40161;39.768;2.722;2023-04-23T19:09:05;100919.66;;;19.81;67.33
54248;BME280;40161;39.768;2.722;2023-04-23T19:11:30;100927.63;;;19.83;67.27
54248;BME280;40161;39.768;2.722;2023-04-23T19:14:05;100931.53;;;19.85;67.66
54248;BME280;40161;39.768;2.722;2023-04-23T19:16:31;100901.19;;;19.44;68.39
54248;BME280;40161;39.768;2.722;2023-04-23T19:18:57;100927.16;;;19.37;69.14
54248;BME280;40161;39.768;2.722;2023-04-23T19:21:22;100954.63;;;19.59;68.52
54248;BME280;40161;39.768;2.722;2023-04-23T19:23:48;100939.69;;;19.49;68.89
54248;BME280;40161;39.768;2.722;2023-04-23T19:26:16;100952.44;;;19.47;69.16
54248;BME280;40161;39.768;2.722;2023-04-23T19:28:41;100938.28;;;19.10;69.49
54248;BME280;40161;39.768;2.722;2023-04-23T19:31:07;100938.69;;;19.09;69.13
54248;BME280;40161;39.768;2.722;2023-04-23T19:33:33;100965.78;;;19.32;68.79
54248;BME280;40161;39.768;2.722;2023-04-23T19:35:58;100954.53;;;19.12;68.49
54248;BME280;40161;39.768;2.722;2023-04-23T19:38:24;100948.25;;;18.77;68.13
54248;BME280;40161;39.768;2.722;2023-04-23T19:40:50;100970.22;;;18.98;68.41
54248;BME280;40161;39.768;2.722;2023-04-23T19:43:15;100979.94;;;19.14;68.17
54248;BME280;40161;39.768;2.722;2023-04-23T19:45:41;100971.75;;;18.72;68.23
54248;BME280;40161;39.768;2.722;2023-04-23T19:48:06;100985.91;;;18.82;68.86
54248;BME280;40161;39.768;2.722;2023-04-23T19:50:32;100976.78;;;18.81;68.69
54248;BME280;40161;39.768;2.722;2023-04-23T19:52:58;100968.19;;;18.72;67.51
54248;BME280;40161;39.768;2.722;2023-04-23T19:55:24;100999.09;;;18.78;68.75
54248;BME280;40161;39.768;2.722;2023-04-23T20:00:17;100995.81;;;18.86;65.89
54248;BME280;40161;39.768;2.722;2023-04-23T20:02:43;101002.03;;;18.60;66.95
54248;BME280;40161;39.768;2.722;2023-04-23T20:05:09;100998.53;;;18.56;66.66
54248;BME280;40161;39.768;2.722;2023-04-23T20:07:38;101012.25;;;18.73;66.13
54248;BME280;40161;39.768;2.722;2023-04-23T20:10:03;101010.66;;;18.72;65.79
54248;BME280;40161;39.768;2.722;2023-04-23T20:12:29;101024.72;;;18.58;65.94
54248;BME280;40161;39.768;2.722;2023-04-23T20:14:56;101010.94;;;18.44;66.31
54248;BME280;40161;39.768;2.722;2023-04-23T20:17:22;101011.69;;;18.52;66.68
54248;BME280;40161;39.768;2.722;2023-04-23T20:19:51;100982.22;;;18.20;64.40
54248;BME280;40161;39.768;2.722;2023-04-23T20:22:16;100989.72;;;18.23;64.43
54248;BME280;40161;39.768;2.722;2023-04-23T20:24:42;101020.09;;;18.44;64.54
54248;BME280;40161;39.768;2.722;2023-04-23T20:27:20;101002.78;;;18.26;64.62
54248;BME280;40161;39.768;2.722;2023-04-23T20:29:45;101002.75;;;18.30;63.28
54248;BME280;40161;39.768;2.722;2023-04-23T20:32:11;101005.53;;;18.30;62.42
54248;BME280;40161;39.768;2.722;2023-04-23T20:34:37;101022.56;;;18.35;63.22
54248;BME280;40161;39.768;2.722;2023-04-23T20:45:19;101020.47;;;18.01;64.60
54248;BME280;40161;39.768;2.722;2023-04-23T20:47:45;101026.03;;;18.01;64.27
54248;BME280;40161;39.768;2.722;2023-04-23T20:50:11;101032.78;;;18.00;64.08
54248;BME280;40161;39.768;2.722;2023-04-23T20:52:53;101016.22;;;17.27;64.87
54248;BME280;40161;39.768;2.722;2023-04-23T21:17:19;101018.75;;;17.00;63.07
54248;BME280;40161;39.768;2.722;2023-04-23T21:19:45;101017.19;;;16.92;63.35
54248;BME280;40161;39.768;2.722;2023-04-23T21:22:10;101018.34;;;17.01;63.51
